ADDS METAR Data INFO
IDs: Format: Raw Decoded Include TAF

Data at: 0429 UTC 21 Nov 2017

KAFW 210353Z 18005KT 10SM BKN300 11/01 A2995 RMK AO2 SLP141 T01110006
KAFW 210253Z 17007KT 10SM FEW300 12/01 A2993 RMK AO2 SLP137 T01170006 57010
KAFW 210153Z 16006KT 10SM FEW300 12/01 A2994 RMK AO2 SLP142 T01170006
KAFW 210053Z 17006KT 10SM FEW300 12/01 A2995 RMK AO2 SLP146 T01220006
KAFW 202353Z COR 16007KT 10SM FEW300 14/00 A2996 RMK AO2 SLP148 T01440000 10194 20144 56008
KAFW 202253Z 17008KT 10SM BKN300 16/M01 A2997 RMK AO2 SLP151 T01611011
KAFW 202153Z 18012G18KT 10SM BKN300 18/M01 A2998 RMK AO2 SLP151 T01781011
KAFW 202053Z 18014G23KT 10SM FEW300 18/M01 A2999 RMK AO2 SLP154 T01831011 56039
KAFW 201953Z 19012G20KT 10SM FEW300 18/M01 A3001 RMK AO2 SLP164 T01781006
KAFW 201853Z 21011G19KT 10SM FEW300 18/M01 A3005 RMK AO2 SLP176 T01781011
KAFW 201753Z COR 19012G20KT 10SM FEW300 17/M01 A3011 RMK AO2 SLP195 T01721006 10172 20022 58026
KAFW 201653Z 17012G19KT 10SM SCT300 16/M01 A3015 RMK AO2 SLP211 T01611011 $
KAFW 201553Z 18008KT 10SM BKN300 12/01 A3017 RMK AO2 SLP220 T01220011 $
KAFW 201453Z 18008KT 10SM BKN300 09/01 A3019 RMK AO2 SLP227 T00890011 50008 $
KAFW 201353Z 25003KT 10SM BKN300 06/01 A3020 RMK AO2 SLP233 T00610006 $
KAFW 201253Z 24003KT 10SM BKN300 03/M01 A3017 RMK AO2 SLP224 T00331006 $
KAFW 201153Z 00000KT 10SM CLR 04/M01 A3016 RMK AO2 SLP217 T00391006 10067 20028 55005 $
KAFW 201053Z 00000KT 10SM CLR 05/M01 A3016 RMK AO2 SLP214 T00501011 $
KAFW 200953Z 19003KT 10SM CLR 06/M01 A3017 RMK AO2 SLP218 T00561011 $
KAFW 200853Z 19004KT 10SM CLR 06/M01 A3018 RMK AO2 SLP220 T00561006 58011 $
KAFW 200753Z 19004KT 10SM CLR 06/00 A3019 RMK AO2 SLP223 T00560000 $
KAFW 200653Z 00000KT 10SM CLR 06/M01 A3021 RMK AO2 SLP230 T00611006 $
KAFW 200553Z 20003KT 10SM CLR 06/00 A3021 RMK AO2 SLP232 T00560000 10111 20022 401670006 58005 $
KAFW 200453Z 19003KT 10SM CLR 03/M01 A3022 RMK AO2 SLP237 T00331011 $
KAFW 200353Z 00000KT 10SM CLR 05/M01 A3022 RMK AO2 SLP237 T00501011 $
KAFW 200253Z 00000KT 10SM CLR 06/M01 A3023 RMK AO2 SLP240 T00561011 51002 $
KAFW 200153Z 00000KT 10SM CLR 07/M02 A3022 RMK AO2 SLP242 T00721017 $
KAFW 200053Z 16003KT 10SM SCT300 08/M02 A3023 RMK AO2 SLP243 T00831017 $
KAFW 192353Z 12004KT 10SM BKN300 11/M02 A3022 RMK AO2 SLP240 T01111022 10167 20111 58012 $
KAFW 192253Z 10003KT 10SM BKN300 14/M03 A3023 RMK AO2 SLP240 T01441033 $
KAFW 192153Z 00000KT 10SM BKN300 16/M04 A3025 RMK AO2 SLP245 T01561039 $
KAFW 192053Z 03003KT 10SM BKN300 16/M03 A3026 RMK AO2 SLP247 T01611033 56031 $
KAFW 191953Z VRB03KT 10SM BKN300 16/M03 A3029 RMK AO2 SLP258 T01611033 $
KAFW 191853Z 04005KT 10SM BKN300 16/M03 A3032 RMK AO2 SLP269 T01561028 $
KAFW 191753Z 00000KT 10SM BKN300 16/M02 A3035 RMK AO2 SLP280 T01561017 10156 20006 58015 $
KAFW 191653Z 00000KT 10SM BKN300 13/M01 A3038 RMK AO2 SLP290 T01331011 $